sensor_id;sensor_type;location;lat;lon;timestamp;P1;durP1;ratioP1;P2;durP2;ratioP2
56728;SDS011;42612;52.232;7.560;2023-06-22T00:01:16;6.88;;;5.63;;
56728;SDS011;42612;52.232;7.560;2023-06-22T00:03:42;6.03;;;5.43;;
56728;SDS011;42612;52.232;7.560;2023-06-22T00:06:08;6.00;;;5.40;;
56728;SDS011;42612;52.232;7.560;2023-06-22T00:08:33;6.28;;;5.68;;
56728;SDS011;42612;52.232;7.560;2023-06-22T00:10:59;6.97;;;5.97;;
56728;SDS011;42612;52.232;7.560;2023-06-22T00:13:25;6.75;;;5.25;;
56728;SDS011;42612;52.232;7.560;2023-06-22T00:15:50;7.18;;;5.22;;
56728;SDS011;42612;52.232;7.560;2023-06-22T00:18:16;6.65;;;5.68;;
56728;SDS011;42612;52.232;7.560;2023-06-22T00:20:42;6.15;;;5.55;;
56728;SDS011;42612;52.232;7.560;2023-06-22T00:23:07;8.23;;;6.30;;
56728;SDS011;42612;52.232;7.560;2023-06-22T00:25:39;6.22;;;5.63;;
56728;SDS011;42612;52.232;7.560;2023-06-22T00:28:05;7.05;;;5.97;;
56728;SDS011;42612;52.232;7.560;2023-06-22T00:30:32;6.70;;;6.03;;
56728;SDS011;42612;52.232;7.560;2023-06-22T00:32:58;5.97;;;5.40;;
56728;SDS011;42612;52.232;7.560;2023-06-22T00:35:25;7.03;;;5.90;;
56728;SDS011;42612;52.232;7.560;2023-06-22T00:37:58;7.03;;;6.22;;
56728;SDS011;42612;52.232;7.560;2023-06-22T00:40:29;9.13;;;6.20;;
56728;SDS011;42612;52.232;7.560;2023-06-22T00:42:56;8.13;;;6.18;;
56728;SDS011;42612;52.232;7.560;2023-06-22T00:45:22;6.15;;;5.55;;
56728;SDS011;42612;52.232;7.560;2023-06-22T00:47:52;6.28;;;5.50;;
56728;SDS011;42612;52.232;7.560;2023-06-22T00:50:20;6.03;;;5.43;;
56728;SDS011;42612;52.232;7.560;2023-06-22T00:52:49;8.10;;;6.25;;
56728;SDS011;42612;52.232;7.560;2023-06-22T00:55:19;6.43;;;5.75;;
56728;SDS011;42612;52.232;7.560;2023-06-22T00:57:46;7.72;;;6.25;;
56728;SDS011;42612;52.232;7.560;2023-06-22T01:00:13;7.57;;;5.55;;
56728;SDS011;42612;52.232;7.560;2023-06-22T01:02:44;8.23;;;6.32;;
56728;SDS011;42612;52.232;7.560;2023-06-22T01:05:12;6.20;;;5.55;;
56728;SDS011;42612;52.232;7.560;2023-06-22T01:13:28;6.15;;;5.55;;
56728;SDS011;42612;52.232;7.560;2023-06-22T01:16:03;5.80;;;5.20;;
56728;SDS011;42612;52.232;7.560;2023-06-22T01:18:36;6.15;;;5.38;;
56728;SDS011;42612;52.232;7.560;2023-06-22T01:21:07;6.18;;;5.57;;
56728;SDS011;42612;52.232;7.560;2023-06-22T01:24:17;6.53;;;5.78;;
56728;SDS011;42612;52.232;7.560;2023-06-22T01:30:10;7.57;;;5.90;;
56728;SDS011;42612;52.232;7.560;2023-06-22T01:32:39;8.25;;;6.38;;
56728;SDS011;42612;52.232;7.560;2023-06-22T01:35:06;8.05;;;5.72;;
56728;SDS011;42612;52.232;7.560;2023-06-22T01:37:34;6.57;;;5.82;;
56728;SDS011;42612;52.232;7.560;2023-06-22T01:40:02;6.65;;;6.00;;
56728;SDS011;42612;52.232;7.560;2023-06-22T01:42:30;7.93;;;5.82;;
56728;SDS011;42612;52.232;7.560;2023-06-22T01:44:57;7.60;;;5.90;;
56728;SDS011;42612;52.232;7.560;2023-06-22T01:47:24;8.00;;;5.72;;
56728;SDS011;42612;52.232;7.560;2023-06-22T01:49:52;6.03;;;5.43;;
56728;SDS011;42612;52.232;7.560;2023-06-22T01:52:18;5.68;;;5.18;;
56728;SDS011;42612;52.232;7.560;2023-06-22T01:57:11;7.18;;;5.60;;
56728;SDS011;42612;52.232;7.560;2023-06-22T02:02:19;6.18;;;5.57;;
56728;SDS011;42612;52.232;7.560;2023-06-22T02:04:49;6.70;;;5.75;;
56728;SDS011;42612;52.232;7.560;2023-06-22T02:07:26;5.80;;;5.20;;
56728;SDS011;42612;52.232;7.560;2023-06-22T02:09:57;7.53;;;6.28;;
56728;SDS011;42612;52.232;7.560;2023-06-22T02:12:25;7.90;;;5.57;;
56728;SDS011;42612;52.232;7.560;2023-06-22T02:17:19;5.93;;;5.18;;
56728;SDS011;42612;52.232;7.560;2023-06-22T02:19:45;6.95;;;5.90;;
56728;SDS011;42612;52.232;7.560;2023-06-22T02:22:11;8.23;;;5.57;;
56728;SDS011;42612;52.232;7.560;2023-06-22T02:24:39;7.40;;;5.13;;
56728;SDS011;42612;52.232;7.560;2023-06-22T02:27:05;7.30;;;5.70;;
56728;SDS011;42612;52.232;7.560;2023-06-22T02:29:32;5.85;;;5.00;;
56728;SDS011;42612;52.232;7.560;2023-06-22T02:31:58;6.03;;;5.45;;
56728;SDS011;42612;52.232;7.560;2023-06-22T02:34:24;6.07;;;5.47;;
56728;SDS011;42612;52.232;7.560;2023-06-22T02:36:50;6.03;;;5.43;;
56728;SDS011;42612;52.232;7.560;2023-06-22T02:39:20;7.05;;;5.65;;
56728;SDS011;42612;52.232;7.560;2023-06-22T02:41:51;7.18;;;6.45;;
56728;SDS011;42612;52.232;7.560;2023-06-22T02:44:18;6.35;;;5.63;;
56728;SDS011;42612;52.232;7.560;2023-06-22T02:46:45;7.37;;;6.27;;
56728;SDS011;42612;52.232;7.560;2023-06-22T02:51:38;7.25;;;5.38;;
56728;SDS011;42612;52.232;7.560;2023-06-22T02:54:09;6.60;;;5.97;;
56728;SDS011;42612;52.232;7.560;2023-06-22T02:56:35;8.75;;;5.70;;
56728;SDS011;42612;52.232;7.560;2023-06-22T02:59:01;6.63;;;5.20;;
56728;SDS011;42612;52.232;7.560;2023-06-22T03:01:28;8.33;;;5.87;;
56728;SDS011;42612;52.232;7.560;2023-06-22T03:04:14;7.18;;;6.03;;
56728;SDS011;42612;52.232;7.560;2023-06-22T03:06:40;6.47;;;5.75;;
56728;SDS011;42612;52.232;7.560;2023-06-22T03:09:06;7.32;;;5.78;;
56728;SDS011;42612;52.232;7.560;2023-06-22T03:11:32;6.25;;;5.25;;
56728;SDS011;42612;52.232;7.560;2023-06-22T03:13:59;7.45;;;5.97;;
56728;SDS011;42612;52.232;7.560;2023-06-22T03:16:26;7.00;;;5.82;;
56728;SDS011;42612;52.232;7.560;2023-06-22T03:18:52;7.22;;;5.90;;
56728;SDS011;42612;52.232;7.560;2023-06-22T03:21:18;6.55;;;5.85;;
56728;SDS011;42612;52.232;7.560;2023-06-22T03:23:46;7.95;;;5.72;;
56728;SDS011;42612;52.232;7.560;2023-06-22T03:26:12;7.55;;;5.70;;
56728;SDS011;42612;52.232;7.560;2023-06-22T03:28:38;6.00;;;5.35;;
56728;SDS011;42612;52.232;7.560;2023-06-22T03:31:04;6.50;;;5.35;;
56728;SDS011;42612;52.232;7.560;2023-06-22T03:33:31;5.75;;;5.25;;
56728;SDS011;42612;52.232;7.560;2023-06-22T03:35:57;6.68;;;5.65;;
56728;SDS011;42612;52.232;7.560;2023-06-22T03:38:23;6.85;;;5.75;;
56728;SDS011;42612;52.232;7.560;2023-06-22T03:40:48;6.90;;;5.70;;
56728;SDS011;42612;52.232;7.560;2023-06-22T03:43:14;7.57;;;5.40;;
56728;SDS011;42612;52.232;7.560;2023-06-22T03:45:40;5.80;;;5.20;;
56728;SDS011;42612;52.232;7.560;2023-06-22T03:48:05;5.43;;;4.93;;
56728;SDS011;42612;52.232;7.560;2023-06-22T03:50:31;6.20;;;5.63;;
56728;SDS011;42612;52.232;7.560;2023-06-22T03:52:57;6.20;;;4.70;;
56728;SDS011;42612;52.232;7.560;2023-06-22T03:55:22;6.35;;;5.30;;
56728;SDS011;42612;52.232;7.560;2023-06-22T03:57:48;5.13;;;4.55;;
56728;SDS011;42612;52.232;7.560;2023-06-22T04:00:14;5.82;;;5.00;;
56728;SDS011;42612;52.232;7.560;2023-06-22T04:02:42;5.45;;;4.95;;
56728;SDS011;42612;52.232;7.560;2023-06-22T04:05:08;6.22;;;5.43;;
56728;SDS011;42612;52.232;7.560;2023-06-22T04:07:34;9.30;;;5.70;;
56728;SDS011;42612;52.232;7.560;2023-06-22T04:10:02;6.00;;;4.90;;
56728;SDS011;42612;52.232;7.560;2023-06-22T04:12:29;6.85;;;4.85;;
56728;SDS011;42612;52.232;7.560;2023-06-22T04:14:55;5.43;;;4.50;;
56728;SDS011;42612;52.232;7.560;2023-06-22T04:17:20;5.68;;;4.97;;
56728;SDS011;42612;52.232;7.560;2023-06-22T04:19:46;6.72;;;4.57;;
56728;SDS011;42612;52.232;7.560;2023-06-22T04:22:12;5.45;;;4.95;;
56728;SDS011;42612;52.232;7.560;2023-06-22T04:24:38;5.55;;;4.72;;
56728;SDS011;42612;52.232;7.560;2023-06-22T04:27:03;6.43;;;4.95;;
56728;SDS011;42612;52.232;7.560;2023-06-22T04:29:30;5.97;;;5.13;;
56728;SDS011;42612;52.232;7.560;2023-06-22T04:31:56;5.32;;;4.82;;
56728;SDS011;42612;52.232;7.560;2023-06-22T04:34:28;4.82;;;4.38;;
56728;SDS011;42612;52.232;7.560;2023-06-22T04:36:54;5.10;;;4.60;;
56728;SDS011;42612;52.232;7.560;2023-06-22T04:39:20;5.00;;;4.47;;
56728;SDS011;42612;52.232;7.560;2023-06-22T04:41:47;7.95;;;4.38;;
56728;SDS011;42612;52.232;7.560;2023-06-22T04:44:16;5.50;;;4.97;;
56728;SDS011;42612;52.232;7.560;2023-06-22T04:46:53;5.88;;;4.88;;
56728;SDS011;42612;52.232;7.560;2023-06-22T04:49:28;5.43;;;4.72;;
56728;SDS011;42612;52.232;7.560;2023-06-22T04:51:59;4.43;;;4.00;;
56728;SDS011;42612;52.232;7.560;2023-06-22T04:54:25;5.38;;;4.28;;
56728;SDS011;42612;52.232;7.560;2023-06-22T04:56:51;7.63;;;4.57;;
56728;SDS011;42612;52.232;7.560;2023-06-22T04:59:22;6.00;;;4.07;;
56728;SDS011;42612;52.232;7.560;2023-06-22T05:01:53;4.88;;;4.38;;
56728;SDS011;42612;52.232;7.560;2023-06-22T05:04:23;5.07;;;4.57;;
56728;SDS011;42612;52.232;7.560;2023-06-22T05:06:49;5.95;;;4.45;;
56728;SDS011;42612;52.232;7.560;2023-06-22T05:09:16;8.75;;;5.22;;
56728;SDS011;42612;52.232;7.560;2023-06-22T05:11:42;5.30;;;4.78;;
56728;SDS011;42612;52.232;7.560;2023-06-22T05:14:08;7.65;;;5.15;;
56728;SDS011;42612;52.232;7.560;2023-06-22T05:16:34;5.55;;;4.85;;
56728;SDS011;42612;52.232;7.560;2023-06-22T05:19:01;4.60;;;4.20;;
56728;SDS011;42612;52.232;7.560;2023-06-22T05:21:30;4.97;;;4.30;;
56728;SDS011;42612;52.232;7.560;2023-06-22T05:23:56;5.28;;;4.40;;
56728;SDS011;42612;52.232;7.560;2023-06-22T05:26:25;9.82;;;8.25;;
56728;SDS011;42612;52.232;7.560;2023-06-22T05:28:52;16.15;;;14.38;;
56728;SDS011;42612;52.232;7.560;2023-06-22T05:31:18;9.03;;;6.40;;
56728;SDS011;42612;52.232;7.560;2023-06-22T05:33:48;5.47;;;4.82;;
56728;SDS011;42612;52.232;7.560;2023-06-22T05:36:16;9.65;;;4.90;;
56728;SDS011;42612;52.232;7.560;2023-06-22T05:38:44;4.80;;;4.40;;
56728;SDS011;42612;52.232;7.560;2023-06-22T05:41:11;6.55;;;5.25;;
56728;SDS011;42612;52.232;7.560;2023-06-22T05:43:36;5.43;;;4.75;;
56728;SDS011;42612;52.232;7.560;2023-06-22T05:46:03;5.25;;;4.75;;
56728;SDS011;42612;52.232;7.560;2023-06-22T05:48:50;5.35;;;4.85;;
56728;SDS011;42612;52.232;7.560;2023-06-22T05:51:15;5.05;;;4.55;;
56728;SDS011;42612;52.232;7.560;2023-06-22T05:53:41;6.82;;;5.68;;
56728;SDS011;42612;52.232;7.560;2023-06-22T05:56:07;8.40;;;4.90;;
56728;SDS011;42612;52.232;7.560;2023-06-22T05:58:33;5.50;;;5.00;;
56728;SDS011;42612;52.232;7.560;2023-06-22T06:00:58;5.68;;;5.07;;
56728;SDS011;42612;52.232;7.560;2023-06-22T06:03:25;6.75;;;5.25;;
56728;SDS011;42612;52.232;7.560;2023-06-22T06:05:53;6.68;;;5.70;;
56728;SDS011;42612;52.232;7.560;2023-06-22T06:08:19;7.13;;;5.53;;
56728;SDS011;42612;52.232;7.560;2023-06-22T06:10:45;9.32;;;4.85;;
56728;SDS011;42612;52.232;7.560;2023-06-22T06:13:10;5.65;;;4.53;;
56728;SDS011;42612;52.232;7.560;2023-06-22T06:15:36;5.45;;;4.90;;
56728;SDS011;42612;52.232;7.560;2023-06-22T06:18:02;21.27;;;6.10;;
56728;SDS011;42612;52.232;7.560;2023-06-22T06:20:30;9.05;;;4.97;;
56728;SDS011;42612;52.232;7.560;2023-06-22T06:22:56;6.72;;;5.65;;
56728;SDS011;42612;52.232;7.560;2023-06-22T06:25:22;6.00;;;4.72;;
56728;SDS011;42612;52.232;7.560;2023-06-22T06:27:48;6.45;;;5.30;;
56728;SDS011;42612;52.232;7.560;2023-06-22T06:30:28;6.53;;;5.25;;
56728;SDS011;42612;52.232;7.560;2023-06-22T06:32:54;5.70;;;5.05;;
56728;SDS011;42612;52.232;7.560;2023-06-22T06:35:20;17.85;;;5.80;;
56728;SDS011;42612;52.232;7.560;2023-06-22T06:37:47;5.68;;;4.78;;
56728;SDS011;42612;52.232;7.560;2023-06-22T06:40:15;5.97;;;4.95;;
56728;SDS011;42612;52.232;7.560;2023-06-22T06:42:44;9.65;;;6.15;;
56728;SDS011;42612;52.232;7.560;2023-06-22T06:45:22;10.82;;;6.00;;
56728;SDS011;42612;52.232;7.560;2023-06-22T06:47:49;6.47;;;4.80;;
56728;SDS011;42612;52.232;7.560;2023-06-22T06:50:17;7.07;;;5.22;;
56728;SDS011;42612;52.232;7.560;2023-06-22T06:52:43;7.93;;;5.15;;
56728;SDS011;42612;52.232;7.560;2023-06-22T06:55:09;10.00;;;5.25;;
56728;SDS011;42612;52.232;7.560;2023-06-22T06:57:37;9.68;;;5.55;;
56728;SDS011;42612;52.232;7.560;2023-06-22T07:02:35;7.10;;;4.93;;
56728;SDS011;42612;52.232;7.560;2023-06-22T07:05:09;5.80;;;5.30;;
56728;SDS011;42612;52.232;7.560;2023-06-22T07:07:36;6.03;;;5.20;;
56728;SDS011;42612;52.232;7.560;2023-06-22T07:10:02;9.15;;;6.03;;
56728;SDS011;42612;52.232;7.560;2023-06-22T07:12:29;6.70;;;6.00;;
56728;SDS011;42612;52.232;7.560;2023-06-22T07:15:00;5.72;;;5.10;;
56728;SDS011;42612;52.232;7.560;2023-06-22T07:17:32;9.07;;;5.97;;
56728;SDS011;42612;52.232;7.560;2023-06-22T07:19:59;8.10;;;5.67;;
56728;SDS011;42612;52.232;7.560;2023-06-22T07:24:51;8.73;;;5.88;;
56728;SDS011;42612;52.232;7.560;2023-06-22T07:27:17;9.07;;;6.47;;
56728;SDS011;42612;52.232;7.560;2023-06-22T07:29:46;9.20;;;5.70;;
56728;SDS011;42612;52.232;7.560;2023-06-22T07:32:12;26.23;;;7.70;;
56728;SDS011;42612;52.232;7.560;2023-06-22T07:34:37;10.38;;;6.65;;
56728;SDS011;42612;52.232;7.560;2023-06-22T07:37:03;11.52;;;7.28;;
56728;SDS011;42612;52.232;7.560;2023-06-22T07:39:29;9.18;;;6.65;;
56728;SDS011;42612;52.232;7.560;2023-06-22T07:41:55;9.48;;;7.15;;
56728;SDS011;42612;52.232;7.560;2023-06-22T07:44:21;9.57;;;6.32;;
56728;SDS011;42612;52.232;7.560;2023-06-22T07:46:47;8.63;;;6.38;;
56728;SDS011;42612;52.232;7.560;2023-06-22T07:49:12;8.88;;;7.43;;
56728;SDS011;42612;52.232;7.560;2023-06-22T07:51:38;9.18;;;7.18;;
56728;SDS011;42612;52.232;7.560;2023-06-22T07:54:04;7.85;;;6.80;;
56728;SDS011;42612;52.232;7.560;2023-06-22T07:56:29;8.85;;;6.68;;
56728;SDS011;42612;52.232;7.560;2023-06-22T07:58:55;12.52;;;7.07;;
56728;SDS011;42612;52.232;7.560;2023-06-22T08:01:23;9.25;;;6.82;;
56728;SDS011;42612;52.232;7.560;2023-06-22T08:03:49;8.85;;;7.20;;
56728;SDS011;42612;52.232;7.560;2023-06-22T08:06:15;7.83;;;6.60;;
56728;SDS011;42612;52.232;7.560;2023-06-22T08:08:41;7.32;;;6.63;;
56728;SDS011;42612;52.232;7.560;2023-06-22T08:11:07;8.77;;;6.65;;
56728;SDS011;42612;52.232;7.560;2023-06-22T08:13:34;8.80;;;6.32;;
56728;SDS011;42612;52.232;7.560;2023-06-22T08:16:00;7.93;;;6.43;;
56728;SDS011;42612;52.232;7.560;2023-06-22T08:18:26;7.35;;;6.63;;
56728;SDS011;42612;52.232;7.560;2023-06-22T08:20:51;9.45;;;6.35;;
56728;SDS011;42612;52.232;7.560;2023-06-22T08:23:17;7.78;;;6.93;;
56728;SDS011;42612;52.232;7.560;2023-06-22T08:25:44;7.50;;;6.70;;
56728;SDS011;42612;52.232;7.560;2023-06-22T08:28:11;6.90;;;5.80;;
56728;SDS011;42612;52.232;7.560;2023-06-22T08:30:38;8.35;;;6.80;;
56728;SDS011;42612;52.232;7.560;2023-06-22T08:33:04;10.30;;;7.47;;
56728;SDS011;42612;52.232;7.560;2023-06-22T08:35:29;9.50;;;7.20;;
56728;SDS011;42612;52.232;7.560;2023-06-22T08:37:55;6.93;;;6.22;;
56728;SDS011;42612;52.232;7.560;2023-06-22T08:40:22;9.33;;;6.37;;
56728;SDS011;42612;52.232;7.560;2023-06-22T08:42:48;15.87;;;5.93;;
56728;SDS011;42612;52.232;7.560;2023-06-22T08:45:14;7.28;;;6.43;;
56728;SDS011;42612;52.232;7.560;2023-06-22T08:47:40;16.85;;;7.03;;
56728;SDS011;42612;52.232;7.560;2023-06-22T08:50:07;7.30;;;6.25;;
56728;SDS011;42612;52.232;7.560;2023-06-22T08:52:37;7.07;;;6.38;;
56728;SDS011;42612;52.232;7.560;2023-06-22T08:55:06;10.45;;;6.90;;
56728;SDS011;42612;52.232;7.560;2023-06-22T08:57:33;8.05;;;6.97;;
56728;SDS011;42612;52.232;7.560;2023-06-22T08:59:59;7.63;;;6.80;;
56728;SDS011;42612;52.232;7.560;2023-06-22T09:02:25;7.72;;;6.85;;
56728;SDS011;42612;52.232;7.560;2023-06-22T09:04:55;7.80;;;7.00;;
56728;SDS011;42612;52.232;7.560;2023-06-22T09:07:22;12.57;;;7.55;;
56728;SDS011;42612;52.232;7.560;2023-06-22T09:12:16;9.85;;;6.90;;
56728;SDS011;42612;52.232;7.560;2023-06-22T09:14:44;8.25;;;7.25;;
56728;SDS011;42612;52.232;7.560;2023-06-22T09:17:12;8.23;;;7.40;;
56728;SDS011;42612;52.232;7.560;2023-06-22T09:22:04;7.32;;;6.63;;
56728;SDS011;42612;52.232;7.560;2023-06-22T09:24:31;7.15;;;6.43;;
56728;SDS011;42612;52.232;7.560;2023-06-22T09:26:57;7.20;;;6.50;;
56728;SDS011;42612;52.232;7.560;2023-06-22T09:29:23;9.02;;;7.15;;
56728;SDS011;42612;52.232;7.560;2023-06-22T09:31:49;7.80;;;6.93;;
56728;SDS011;42612;52.232;7.560;2023-06-22T09:34:15;9.95;;;7.20;;
56728;SDS011;42612;52.232;7.560;2023-06-22T09:36:45;12.35;;;7.55;;
56728;SDS011;42612;52.232;7.560;2023-06-22T09:39:11;10.27;;;7.95;;
56728;SDS011;42612;52.232;7.560;2023-06-22T09:41:37;8.88;;;7.60;;
56728;SDS011;42612;52.232;7.560;2023-06-22T09:44:03;7.45;;;6.38;;
56728;SDS011;42612;52.232;7.560;2023-06-22T09:46:28;8.07;;;7.18;;
56728;SDS011;42612;52.232;7.560;2023-06-22T09:48:54;8.95;;;6.50;;
56728;SDS011;42612;52.232;7.560;2023-06-22T09:51:20;8.07;;;6.95;;
56728;SDS011;42612;52.232;7.560;2023-06-22T09:53:46;9.18;;;7.30;;
56728;SDS011;42612;52.232;7.560;2023-06-22T09:56:13;9.10;;;7.45;;
56728;SDS011;42612;52.232;7.560;2023-06-22T09:58:42;8.63;;;7.38;;
56728;SDS011;42612;52.232;7.560;2023-06-22T10:01:11;7.75;;;6.85;;
56728;SDS011;42612;52.232;7.560;2023-06-22T10:03:39;8.63;;;7.43;;
56728;SDS011;42612;52.232;7.560;2023-06-22T10:06:06;8.52;;;7.70;;
56728;SDS011;42612;52.232;7.560;2023-06-22T10:08:32;9.00;;;7.93;;
56728;SDS011;42612;52.232;7.560;2023-06-22T10:10:58;8.23;;;7.32;;
56728;SDS011;42612;52.232;7.560;2023-06-22T10:13:24;8.90;;;7.60;;
56728;SDS011;42612;52.232;7.560;2023-06-22T10:15:50;9.65;;;6.60;;
56728;SDS011;42612;52.232;7.560;2023-06-22T10:20:43;8.35;;;7.07;;
56728;SDS011;42612;52.232;7.560;2023-06-22T10:23:13;8.80;;;7.70;;
56728;SDS011;42612;52.232;7.560;2023-06-22T10:25:38;11.95;;;7.78;;
56728;SDS011;42612;52.232;7.560;2023-06-22T10:28:04;8.45;;;7.55;;
56728;SDS011;42612;52.232;7.560;2023-06-22T10:30:30;8.93;;;7.53;;
56728;SDS011;42612;52.232;7.560;2023-06-22T10:32:56;9.63;;;8.20;;
56728;SDS011;42612;52.232;7.560;2023-06-22T10:35:21;9.80;;;7.07;;
56728;SDS011;42612;52.232;7.560;2023-06-22T10:37:48;9.45;;;7.97;;
56728;SDS011;42612;52.232;7.560;2023-06-22T10:42:41;8.27;;;7.47;;
56728;SDS011;42612;52.232;7.560;2023-06-22T10:45:07;10.68;;;7.53;;
56728;SDS011;42612;52.232;7.560;2023-06-22T10:47:34;7.70;;;7.00;;
56728;SDS011;42612;52.232;7.560;2023-06-22T10:50:00;9.20;;;7.63;;
56728;SDS011;42612;52.232;7.560;2023-06-22T10:52:26;10.20;;;8.15;;
56728;SDS011;42612;52.232;7.560;2023-06-22T10:54:52;9.23;;;7.25;;
56728;SDS011;42612;52.232;7.560;2023-06-22T10:57:18;8.05;;;7.25;;
56728;SDS011;42612;52.232;7.560;2023-06-22T10:59:44;9.10;;;8.15;;
56728;SDS011;42612;52.232;7.560;2023-06-22T11:02:09;8.60;;;7.70;;
56728;SDS011;42612;52.232;7.560;2023-06-22T11:04:35;7.47;;;6.78;;
56728;SDS011;42612;52.232;7.560;2023-06-22T11:07:01;9.18;;;8.20;;
56728;SDS011;42612;52.232;7.560;2023-06-22T11:09:27;8.68;;;7.38;;
56728;SDS011;42612;52.232;7.560;2023-06-22T11:11:52;9.57;;;7.00;;
56728;SDS011;42612;52.232;7.560;2023-06-22T11:14:19;8.32;;;7.40;;
56728;SDS011;42612;52.232;7.560;2023-06-22T11:16:45;8.55;;;7.43;;
56728;SDS011;42612;52.232;7.560;2023-06-22T11:19:11;8.27;;;7.13;;
56728;SDS011;42612;52.232;7.560;2023-06-22T11:21:37;8.83;;;7.87;;
56728;SDS011;42612;52.232;7.560;2023-06-22T11:24:03;9.17;;;7.37;;
56728;SDS011;42612;52.232;7.560;2023-06-22T11:26:30;7.93;;;7.13;;
56728;SDS011;42612;52.232;7.560;2023-06-22T11:28:56;9.02;;;7.32;;
56728;SDS011;42612;52.232;7.560;2023-06-22T11:31:23;9.23;;;7.00;;
56728;SDS011;42612;52.232;7.560;2023-06-22T11:33:49;7.60;;;6.80;;
56728;SDS011;42612;52.232;7.560;2023-06-22T11:36:14;9.50;;;7.15;;
56728;SDS011;42612;52.232;7.560;2023-06-22T11:38:41;8.17;;;7.37;;
56728;SDS011;42612;52.232;7.560;2023-06-22T11:41:08;7.97;;;7.18;;
56728;SDS011;42612;52.232;7.560;2023-06-22T11:43:35;7.50;;;6.75;;
56728;SDS011;42612;52.232;7.560;2023-06-22T11:46:05;8.35;;;6.82;;
56728;SDS011;42612;52.232;7.560;2023-06-22T11:48:31;7.93;;;6.70;;
56728;SDS011;42612;52.232;7.560;2023-06-22T11:50:57;7.90;;;6.72;;
56728;SDS011;42612;52.232;7.560;2023-06-22T11:53:24;7.53;;;6.72;;
56728;SDS011;42612;52.232;7.560;2023-06-22T11:55:51;7.43;;;6.70;;
56728;SDS011;42612;52.232;7.560;2023-06-22T11:58:19;9.48;;;6.97;;
56728;SDS011;42612;52.232;7.560;2023-06-22T12:00:44;6.75;;;6.13;;
56728;SDS011;42612;52.232;7.560;2023-06-22T12:03:10;6.97;;;6.30;;
56728;SDS011;42612;52.232;7.560;2023-06-22T12:05:44;7.95;;;6.82;;
56728;SDS011;42612;52.232;7.560;2023-06-22T12:08:09;7.57;;;6.43;;
56728;SDS011;42612;52.232;7.560;2023-06-22T12:10:36;7.25;;;6.55;;
56728;SDS011;42612;52.232;7.560;2023-06-22T12:13:02;9.10;;;7.23;;
56728;SDS011;42612;52.232;7.560;2023-06-22T12:15:28;7.30;;;6.60;;
56728;SDS011;42612;52.232;7.560;2023-06-22T12:17:53;7.73;;;6.63;;
56728;SDS011;42612;52.232;7.560;2023-06-22T12:20:19;7.85;;;6.75;;
56728;SDS011;42612;52.232;7.560;2023-06-22T12:22:45;9.63;;;7.53;;
56728;SDS011;42612;52.232;7.560;2023-06-22T12:25:11;6.45;;;5.80;;
56728;SDS011;42612;52.232;7.560;2023-06-22T12:27:37;7.43;;;6.73;;
56728;SDS011;42612;52.232;7.560;2023-06-22T12:30:03;7.93;;;6.90;;
56728;SDS011;42612;52.232;7.560;2023-06-22T12:34:58;9.95;;;6.70;;
56728;SDS011;42612;52.232;7.560;2023-06-22T12:37:24;8.10;;;6.18;;
56728;SDS011;42612;52.232;7.560;2023-06-22T12:39:50;7.75;;;6.70;;
56728;SDS011;42612;52.232;7.560;2023-06-22T12:42:16;7.55;;;6.80;;
56728;SDS011;42612;52.232;7.560;2023-06-22T12:44:42;16.60;;;14.90;;
56728;SDS011;42612;52.232;7.560;2023-06-22T12:47:08;9.47;;;7.47;;
56728;SDS011;42612;52.232;7.560;2023-06-22T12:49:34;8.23;;;7.25;;
56728;SDS011;42612;52.232;7.560;2023-06-22T12:52:01;9.73;;;7.18;;
56728;SDS011;42612;52.232;7.560;2023-06-22T12:54:27;8.57;;;7.10;;
56728;SDS011;42612;52.232;7.560;2023-06-22T12:56:56;8.63;;;7.72;;
56728;SDS011;42612;52.232;7.560;2023-06-22T12:59:22;10.50;;;7.15;;
56728;SDS011;42612;52.232;7.560;2023-06-22T13:01:47;9.55;;;6.05;;
56728;SDS011;42612;52.232;7.560;2023-06-22T13:04:13;6.53;;;5.93;;
56728;SDS011;42612;52.232;7.560;2023-06-22T13:06:43;8.23;;;7.28;;
56728;SDS011;42612;52.232;7.560;2023-06-22T13:09:13;7.47;;;6.30;;
56728;SDS011;42612;52.232;7.560;2023-06-22T13:11:40;8.70;;;7.47;;
56728;SDS011;42612;52.232;7.560;2023-06-22T13:14:07;7.15;;;6.47;;
56728;SDS011;42612;52.232;7.560;2023-06-22T13:16:33;8.23;;;6.88;;
56728;SDS011;42612;52.232;7.560;2023-06-22T13:18:58;10.02;;;6.95;;
56728;SDS011;42612;52.232;7.560;2023-06-22T13:21:24;13.45;;;7.60;;
56728;SDS011;42612;52.232;7.560;2023-06-22T13:23:50;13.25;;;6.85;;
56728;SDS011;42612;52.232;7.560;2023-06-22T13:26:15;22.42;;;9.27;;
56728;SDS011;42612;52.232;7.560;2023-06-22T13:28:41;13.32;;;7.50;;
56728;SDS011;42612;52.232;7.560;2023-06-22T13:31:07;15.85;;;7.93;;
56728;SDS011;42612;52.232;7.560;2023-06-22T13:33:32;12.52;;;7.68;;
56728;SDS011;42612;52.232;7.560;2023-06-22T13:35:58;14.45;;;8.00;;
56728;SDS011;42612;52.232;7.560;2023-06-22T13:38:24;12.50;;;7.78;;
56728;SDS011;42612;52.232;7.560;2023-06-22T13:40:49;9.65;;;7.47;;
56728;SDS011;42612;52.232;7.560;2023-06-22T13:43:15;12.00;;;7.80;;
56728;SDS011;42612;52.232;7.560;2023-06-22T13:45:42;10.68;;;7.40;;
56728;SDS011;42612;52.232;7.560;2023-06-22T13:48:08;11.10;;;7.75;;
56728;SDS011;42612;52.232;7.560;2023-06-22T13:50:34;12.88;;;8.15;;
56728;SDS011;42612;52.232;7.560;2023-06-22T13:53:00;7.93;;;6.72;;
56728;SDS011;42612;52.232;7.560;2023-06-22T13:55:25;9.80;;;8.23;;
56728;SDS011;42612;52.232;7.560;2023-06-22T13:57:51;9.45;;;7.88;;
56728;SDS011;42612;52.232;7.560;2023-06-22T14:00:17;10.70;;;8.45;;
56728;SDS011;42612;52.232;7.560;2023-06-22T14:02:44;9.25;;;7.57;;
56728;SDS011;42612;52.232;7.560;2023-06-22T14:05:10;13.40;;;8.27;;
56728;SDS011;42612;52.232;7.560;2023-06-22T14:07:36;9.70;;;8.67;;
56728;SDS011;42612;52.232;7.560;2023-06-22T14:10:02;9.15;;;8.32;;
56728;SDS011;42612;52.232;7.560;2023-06-22T14:12:29;11.38;;;8.57;;
56728;SDS011;42612;52.232;7.560;2023-06-22T14:14:55;9.73;;;8.27;;
56728;SDS011;42612;52.232;7.560;2023-06-22T14:19:50;11.88;;;7.95;;
56728;SDS011;42612;52.232;7.560;2023-06-22T14:22:20;9.43;;;8.38;;
56728;SDS011;42612;52.232;7.560;2023-06-22T14:24:49;11.23;;;8.38;;
56728;SDS011;42612;52.232;7.560;2023-06-22T14:27:15;9.82;;;8.82;;
56728;SDS011;42612;52.232;7.560;2023-06-22T14:29:41;10.52;;;8.30;;
56728;SDS011;42612;52.232;7.560;2023-06-22T14:32:07;12.93;;;9.02;;
56728;SDS011;42612;52.232;7.560;2023-06-22T14:34:34;9.38;;;8.48;;
56728;SDS011;42612;52.232;7.560;2023-06-22T14:39:27;8.82;;;7.70;;
56728;SDS011;42612;52.232;7.560;2023-06-22T14:41:53;8.80;;;7.80;;
56728;SDS011;42612;52.232;7.560;2023-06-22T14:44:18;9.38;;;8.07;;
56728;SDS011;42612;52.232;7.560;2023-06-22T14:46:44;13.68;;;8.95;;
56728;SDS011;42612;52.232;7.560;2023-06-22T14:49:10;14.07;;;8.00;;
56728;SDS011;42612;52.232;7.560;2023-06-22T14:51:36;14.93;;;9.05;;
56728;SDS011;42612;52.232;7.560;2023-06-22T14:54:01;10.25;;;8.20;;
56728;SDS011;42612;52.232;7.560;2023-06-22T14:56:27;11.70;;;8.02;;
56728;SDS011;42612;52.232;7.560;2023-06-22T14:58:53;8.82;;;7.75;;
56728;SDS011;42612;52.232;7.560;2023-06-22T15:01:18;13.68;;;7.63;;
56728;SDS011;42612;52.232;7.560;2023-06-22T15:03:44;9.02;;;7.07;;
56728;SDS011;42612;52.232;7.560;2023-06-22T15:06:10;17.42;;;8.32;;
56728;SDS011;42612;52.232;7.560;2023-06-22T15:08:39;9.15;;;7.78;;
56728;SDS011;42612;52.232;7.560;2023-06-22T15:11:05;8.43;;;6.68;;
56728;SDS011;42612;52.232;7.560;2023-06-22T15:13:32;9.52;;;7.93;;
56728;SDS011;42612;52.232;7.560;2023-06-22T15:15:59;9.13;;;7.82;;
56728;SDS011;42612;52.232;7.560;2023-06-22T15:18:28;8.45;;;7.63;;
56728;SDS011;42612;52.232;7.560;2023-06-22T15:20:54;11.88;;;8.40;;
56728;SDS011;42612;52.232;7.560;2023-06-22T15:23:20;10.65;;;7.78;;
56728;SDS011;42612;52.232;7.560;2023-06-22T15:25:46;8.75;;;7.22;;